createdAt,value
2023-02-11T00:04:50.001Z,19.57
2023-02-11T00:14:52.162Z,18.73
2023-02-11T00:24:54.305Z,18.70
2023-02-11T00:34:56.478Z,18.93
2023-02-11T00:44:58.668Z,19.03
2023-02-11T00:55:00.797Z,18.87
2023-02-11T01:05:03.131Z,18.00
2023-02-11T01:15:07.268Z,18.80
2023-02-11T01:25:10.292Z,17.40
2023-02-11T01:35:12.524Z,16.17
2023-02-11T01:45:49.251Z,16.40
2023-02-11T01:56:10.876Z,16.80
2023-02-11T02:06:17.286Z,15.80
2023-02-11T02:16:21.606Z,15.80
2023-02-11T02:27:02.326Z,16.40
2023-02-11T02:37:12.693Z,16.13
2023-02-11T02:47:14.909Z,16.83
2023-02-11T02:57:31.122Z,17.37
2023-02-11T03:08:12.189Z,16.77
2023-02-11T03:18:17.984Z,19.23
2023-02-11T03:28:46.498Z,19.13
2023-02-11T03:38:50.638Z,17.67
2023-02-11T03:48:56.749Z,18.33
2023-02-11T03:58:58.937Z,17.57
2023-02-11T04:09:01.083Z,18.13
2023-02-11T04:19:03.483Z,18.87
2023-02-11T04:29:05.579Z,17.97
2023-02-11T04:39:08.063Z,18.97
2023-02-11T04:49:13.768Z,19.23
2023-02-11T04:59:15.907Z,21.50
2023-02-11T05:09:18.215Z,20.37
2023-02-11T05:19:20.360Z,21.47
2023-02-11T05:29:22.579Z,21.50
2023-02-11T05:39:24.759Z,22.90
2023-02-11T05:49:26.934Z,22.17
2023-02-11T05:59:29.935Z,21.60
2023-02-11T06:09:32.284Z,22.03
2023-02-11T06:19:34.658Z,23.60
2023-02-11T06:29:37.005Z,24.63
2023-02-11T06:39:39.620Z,23.73
2023-02-11T06:49:41.971Z,24.03
2023-02-11T06:59:44.281Z,24.77
2023-02-11T07:09:46.401Z,25.17
2023-02-11T07:19:48.589Z,24.77
2023-02-11T07:29:50.711Z,25.47
2023-02-11T07:39:53.411Z,27.60
2023-02-11T07:49:56.754Z,29.27
2023-02-11T07:59:59.020Z,26.97
2023-02-11T08:10:01.178Z,28.57
2023-02-11T08:20:04.852Z,29.03
2023-02-11T08:30:07.353Z,28.97
2023-02-11T08:40:09.801Z,28.93
2023-02-11T08:50:12.091Z,31.23
2023-02-11T09:00:15.511Z,31.13
2023-02-11T09:10:17.643Z,33.70
2023-02-11T09:20:22.027Z,33.43
2023-02-11T09:30:25.175Z,33.77
2023-02-11T09:40:27.375Z,33.40
2023-02-11T09:50:54.178Z,31.33
2023-02-11T10:01:10.124Z,32.10
2023-02-11T10:11:31.363Z,31.17
2023-02-11T10:22:06.959Z,33.70
2023-02-11T10:32:29.617Z,32.63
2023-02-11T10:42:32.609Z,30.80
2023-02-11T10:52:34.983Z,31.33
2023-02-11T11:02:38.810Z,32.20
2023-02-11T11:12:48.991Z,31.10
2023-02-11T11:23:27.358Z,33.83
2023-02-11T11:33:34.524Z,37.17
2023-02-11T11:43:40.756Z,42.83
2023-02-11T11:54:06.639Z,33.87
2023-02-11T12:04:17.741Z,35.17
2023-02-11T12:14:35.830Z,44.27
2023-02-11T12:25:06.226Z,36.83
2023-02-11T12:35:13.708Z,37.03
2023-02-11T12:45:25.869Z,38.87
2023-02-11T12:55:30.582Z,39.53
2023-02-11T13:05:49.459Z,39.90
2023-02-11T13:16:07.372Z,40.20
2023-02-11T13:26:19.484Z,40.97
2023-02-11T13:36:26.778Z,42.03
2023-02-11T13:46:48.812Z,41.73
2023-02-11T13:57:29.782Z,41.07
2023-02-11T14:07:52.571Z,41.30
2023-02-11T14:17:57.282Z,41.87
2023-02-11T14:28:17.529Z,41.17
2023-02-11T14:38:47.056Z,38.40
2023-02-11T14:48:50.994Z,33.40
2023-02-11T14:58:55.419Z,36.43
2023-02-11T15:09:04.494Z,36.30
2023-02-11T15:19:25.804Z,32.47
2023-02-11T15:29:35.076Z,33.87
2023-02-11T15:39:41.395Z,32.73
2023-02-11T15:49:53.504Z,33.37
2023-02-11T16:00:05.766Z,34.80
2023-02-11T16:10:36.652Z,33.57
2023-02-11T16:20:47.469Z,30.50
2023-02-11T16:31:02.471Z,31.50
2023-02-11T16:41:06.354Z,32.40
2023-02-11T16:51:11.588Z,29.63
2023-02-11T17:01:14.423Z,32.60
2023-02-11T17:11:21.538Z,32.17
2023-02-11T17:21:27.108Z,35.53
2023-02-11T17:31:31.281Z,32.80
2023-02-11T17:41:33.661Z,31.40
2023-02-11T17:51:38.740Z,31.63
2023-02-11T18:01:42.594Z,35.20
2023-02-11T18:11:48.489Z,33.20
2023-02-11T18:21:51.334Z,33.20
2023-02-11T18:31:57.440Z,32.17
2023-02-11T18:42:00.126Z,30.93
2023-02-11T18:52:02.921Z,32.63
2023-02-11T19:02:05.529Z,32.50
2023-02-11T19:12:08.785Z,35.37
2023-02-11T19:22:10.996Z,36.80
2023-02-11T19:32:15.888Z,37.33
2023-02-11T19:42:19.029Z,41.93
2023-02-11T19:52:21.635Z,42.60
2023-02-11T20:02:25.765Z,43.23
2023-02-11T20:12:31.045Z,43.77
2023-02-11T20:22:34.939Z,46.43
2023-02-11T20:32:38.616Z,45.60
2023-02-11T20:42:46.941Z,44.43
2023-02-11T20:52:53.903Z,43.70
2023-02-11T21:02:57.111Z,40.87
2023-02-11T21:13:00.625Z,44.87
2023-02-11T21:23:03.491Z,44.07
2023-02-11T21:33:06.272Z,42.03
2023-02-11T21:43:09.582Z,40.83
2023-02-11T21:53:15.661Z,40.23
2023-02-11T22:03:18.873Z,41.63
2023-02-11T22:13:22.328Z,40.07
2023-02-11T22:23:27.647Z,40.37
2023-02-11T22:33:29.782Z,38.00
2023-02-11T22:43:32.004Z,38.57
2023-02-11T22:53:35.538Z,36.63
2023-02-11T23:03:39.191Z,36.30
2023-02-11T23:13:42.306Z,35.63
2023-02-11T23:23:45.103Z,34.43
2023-02-11T23:33:48.756Z,34.40
2023-02-11T23:43:52.837Z,34.30
2023-02-11T23:53:56.987Z,34.80
